sensor_id;sensor_type;location;lat;lon;timestamp;temperature;humidity
7030;DHT22;3556;53.500;10.176;2023-04-24T00:01:16;12.20;99.90
7030;DHT22;3556;53.500;10.176;2023-04-24T00:03:42;12.20;99.90
7030;DHT22;3556;53.500;10.176;2023-04-24T00:06:08;12.20;99.90
7030;DHT22;3556;53.500;10.176;2023-04-24T00:08:35;12.20;99.90
7030;DHT22;3556;53.500;10.176;2023-04-24T00:11:01;12.10;99.90
7030;DHT22;3556;53.500;10.176;2023-04-24T00:13:27;12.10;99.90
7030;DHT22;3556;53.500;10.176;2023-04-24T00:15:57;12.10;99.90
7030;DHT22;3556;53.500;10.176;2023-04-24T00:18:22;12.10;99.90
7030;DHT22;3556;53.500;10.176;2023-04-24T00:20:48;12.10;99.90
7030;DHT22;3556;53.500;10.176;2023-04-24T00:23:13;12.00;99.90
7030;DHT22;3556;53.500;10.176;2023-04-24T00:25:39;12.00;99.90
7030;DHT22;3556;53.500;10.176;2023-04-24T00:28:05;12.00;99.90
7030;DHT22;3556;53.500;10.176;2023-04-24T00:30:31;12.00;99.90
7030;DHT22;3556;53.500;10.176;2023-04-24T00:32:57;12.00;99.90
7030;DHT22;3556;53.500;10.176;2023-04-24T00:35:23;11.90;99.90
7030;DHT22;3556;53.500;10.176;2023-04-24T00:37:48;11.90;99.90
7030;DHT22;3556;53.500;10.176;2023-04-24T00:40:15;11.90;99.90
7030;DHT22;3556;53.500;10.176;2023-04-24T00:42:40;11.90;99.90
7030;DHT22;3556;53.500;10.176;2023-04-24T00:45:07;11.80;99.90
7030;DHT22;3556;53.500;10.176;2023-04-24T00:47:33;11.80;99.90
7030;DHT22;3556;53.500;10.176;2023-04-24T00:50:05;11.80;99.90
7030;DHT22;3556;53.500;10.176;2023-04-24T00:52:31;11.80;99.90
7030;DHT22;3556;53.500;10.176;2023-04-24T00:54:58;11.80;99.90
7030;DHT22;3556;53.500;10.176;2023-04-24T00:57:24;11.80;99.90
7030;DHT22;3556;53.500;10.176;2023-04-24T00:59:51;11.70;99.90
7030;DHT22;3556;53.500;10.176;2023-04-24T01:02:18;11.70;99.90
7030;DHT22;3556;53.500;10.176;2023-04-24T01:04:45;11.70;99.90
7030;DHT22;3556;53.500;10.176;2023-04-24T01:07:10;11.70;99.90
7030;DHT22;3556;53.500;10.176;2023-04-24T01:09:44;11.70;99.90
7030;DHT22;3556;53.500;10.176;2023-04-24T01:12:12;11.70;99.90
7030;DHT22;3556;53.500;10.176;2023-04-24T01:14:38;11.70;99.90
7030;DHT22;3556;53.500;10.176;2023-04-24T01:17:03;11.60;99.90
7030;DHT22;3556;53.500;10.176;2023-04-24T01:19:29;11.60;99.90
7030;DHT22;3556;53.500;10.176;2023-04-24T01:21:58;11.60;99.90
7030;DHT22;3556;53.500;10.176;2023-04-24T01:24:24;11.60;99.90
7030;DHT22;3556;53.500;10.176;2023-04-24T01:26:49;11.60;99.90
7030;DHT22;3556;53.500;10.176;2023-04-24T01:29:15;11.60;99.90
7030;DHT22;3556;53.500;10.176;2023-04-24T01:31:41;11.60;99.90
7030;DHT22;3556;53.500;10.176;2023-04-24T01:34:07;11.60;99.90
7030;DHT22;3556;53.500;10.176;2023-04-24T01:36:35;11.60;99.90
7030;DHT22;3556;53.500;10.176;2023-04-24T01:39:01;11.60;99.90
7030;DHT22;3556;53.500;10.176;2023-04-24T01:41:28;11.50;99.90
7030;DHT22;3556;53.500;10.176;2023-04-24T01:43:54;11.50;99.90
7030;DHT22;3556;53.500;10.176;2023-04-24T01:46:20;11.50;99.90
7030;DHT22;3556;53.500;10.176;2023-04-24T01:48:46;11.50;99.90
7030;DHT22;3556;53.500;10.176;2023-04-24T01:51:11;11.50;99.90
7030;DHT22;3556;53.500;10.176;2023-04-24T01:53:37;11.50;99.90
7030;DHT22;3556;53.500;10.176;2023-04-24T01:56:03;11.40;99.90
7030;DHT22;3556;53.500;10.176;2023-04-24T01:58:29;11.40;99.90
7030;DHT22;3556;53.500;10.176;2023-04-24T02:00:56;11.30;99.90
7030;DHT22;3556;53.500;10.176;2023-04-24T02:03:25;11.20;99.90
7030;DHT22;3556;53.500;10.176;2023-04-24T02:05:51;11.20;99.90
7030;DHT22;3556;53.500;10.176;2023-04-24T02:08:16;11.20;99.90
7030;DHT22;3556;53.500;10.176;2023-04-24T02:10:42;11.10;99.90
7030;DHT22;3556;53.500;10.176;2023-04-24T02:13:07;11.00;99.90
7030;DHT22;3556;53.500;10.176;2023-04-24T02:15:33;10.90;99.90
7030;DHT22;3556;53.500;10.176;2023-04-24T02:17:59;10.90;99.90
7030;DHT22;3556;53.500;10.176;2023-04-24T02:20:25;10.90;99.90
7030;DHT22;3556;53.500;10.176;2023-04-24T02:22:50;10.90;99.90
7030;DHT22;3556;53.500;10.176;2023-04-24T02:25:16;10.80;99.90
7030;DHT22;3556;53.500;10.176;2023-04-24T02:27:41;10.80;99.90
7030;DHT22;3556;53.500;10.176;2023-04-24T02:30:07;10.70;99.90
7030;DHT22;3556;53.500;10.176;2023-04-24T02:32:33;10.60;99.90
7030;DHT22;3556;53.500;10.176;2023-04-24T02:34:59;10.60;99.90
7030;DHT22;3556;53.500;10.176;2023-04-24T02:37:25;10.60;99.90
7030;DHT22;3556;53.500;10.176;2023-04-24T02:39:50;10.70;99.90
7030;DHT22;3556;53.500;10.176;2023-04-24T02:42:16;10.70;99.90
7030;DHT22;3556;53.500;10.176;2023-04-24T02:44:41;10.60;99.90
7030;DHT22;3556;53.500;10.176;2023-04-24T02:47:07;10.60;99.90
7030;DHT22;3556;53.500;10.176;2023-04-24T02:49:33;10.60;99.90
7030;DHT22;3556;53.500;10.176;2023-04-24T02:51:59;10.60;99.90
7030;DHT22;3556;53.500;10.176;2023-04-24T02:54:25;10.60;99.90
7030;DHT22;3556;53.500;10.176;2023-04-24T02:56:50;10.50;99.90
7030;DHT22;3556;53.500;10.176;2023-04-24T02:59:16;10.50;99.90
7030;DHT22;3556;53.500;10.176;2023-04-24T03:01:41;10.50;99.90
7030;DHT22;3556;53.500;10.176;2023-04-24T03:04:07;10.50;99.90
7030;DHT22;3556;53.500;10.176;2023-04-24T03:06:33;10.50;99.90
7030;DHT22;3556;53.500;10.176;2023-04-24T03:09:00;10.60;99.90
7030;DHT22;3556;53.500;10.176;2023-04-24T03:11:26;10.50;99.90
7030;DHT22;3556;53.500;10.176;2023-04-24T03:13:52;10.60;99.90
7030;DHT22;3556;53.500;10.176;2023-04-24T03:16:17;10.50;99.90
7030;DHT22;3556;53.500;10.176;2023-04-24T03:18:43;10.50;99.90
7030;DHT22;3556;53.500;10.176;2023-04-24T03:21:08;10.50;99.90
7030;DHT22;3556;53.500;10.176;2023-04-24T03:23:34;10.50;99.90
7030;DHT22;3556;53.500;10.176;2023-04-24T03:26:00;10.40;99.90
7030;DHT22;3556;53.500;10.176;2023-04-24T03:28:25;10.40;99.90
7030;DHT22;3556;53.500;10.176;2023-04-24T03:30:51;10.40;99.90
7030;DHT22;3556;53.500;10.176;2023-04-24T03:33:17;10.40;99.90
7030;DHT22;3556;53.500;10.176;2023-04-24T03:35:43;10.40;99.90
7030;DHT22;3556;53.500;10.176;2023-04-24T03:38:08;10.40;99.90
7030;DHT22;3556;53.500;10.176;2023-04-24T03:40:34;10.40;99.90
7030;DHT22;3556;53.500;10.176;2023-04-24T03:42:59;10.30;99.90
7030;DHT22;3556;53.500;10.176;2023-04-24T03:45:25;10.30;99.90
7030;DHT22;3556;53.500;10.176;2023-04-24T03:47:51;10.30;99.90
7030;DHT22;3556;53.500;10.176;2023-04-24T03:50:16;10.30;99.90
7030;DHT22;3556;53.500;10.176;2023-04-24T03:52:42;10.30;99.90
7030;DHT22;3556;53.500;10.176;2023-04-24T03:55:08;10.30;99.90
7030;DHT22;3556;53.500;10.176;2023-04-24T03:57:33;10.30;99.90
7030;DHT22;3556;53.500;10.176;2023-04-24T03:59:59;10.20;99.90
7030;DHT22;3556;53.500;10.176;2023-04-24T04:02:25;10.20;99.90
7030;DHT22;3556;53.500;10.176;2023-04-24T04:04:50;10.20;99.90
7030;DHT22;3556;53.500;10.176;2023-04-24T04:07:17;10.20;99.90
7030;DHT22;3556;53.500;10.176;2023-04-24T04:09:42;10.10;99.90
7030;DHT22;3556;53.500;10.176;2023-04-24T04:12:08;10.00;99.90
7030;DHT22;3556;53.500;10.176;2023-04-24T04:14:33;10.00;99.90
7030;DHT22;3556;53.500;10.176;2023-04-24T04:16:59;10.00;99.90
7030;DHT22;3556;53.500;10.176;2023-04-24T04:19:25;9.90;99.90
7030;DHT22;3556;53.500;10.176;2023-04-24T04:21:51;9.90;99.90
7030;DHT22;3556;53.500;10.176;2023-04-24T04:24:19;9.80;99.90
7030;DHT22;3556;53.500;10.176;2023-04-24T04:26:46;9.80;99.90
7030;DHT22;3556;53.500;10.176;2023-04-24T04:29:13;9.80;99.90
7030;DHT22;3556;53.500;10.176;2023-04-24T04:31:38;9.80;99.90
7030;DHT22;3556;53.500;10.176;2023-04-24T04:34:04;9.80;99.90
7030;DHT22;3556;53.500;10.176;2023-04-24T04:36:30;9.70;99.90
7030;DHT22;3556;53.500;10.176;2023-04-24T04:38:55;9.70;99.90
7030;DHT22;3556;53.500;10.176;2023-04-24T04:41:22;9.70;99.90
7030;DHT22;3556;53.500;10.176;2023-04-24T04:43:47;9.70;99.90
7030;DHT22;3556;53.500;10.176;2023-04-24T04:46:13;9.70;99.90
7030;DHT22;3556;53.500;10.176;2023-04-24T04:48:39;9.60;99.90
7030;DHT22;3556;53.500;10.176;2023-04-24T04:51:05;9.60;99.90
7030;DHT22;3556;53.500;10.176;2023-04-24T04:53:31;9.60;99.90
7030;DHT22;3556;53.500;10.176;2023-04-24T04:55:57;9.60;99.90
7030;DHT22;3556;53.500;10.176;2023-04-24T04:58:23;9.60;99.90
7030;DHT22;3556;53.500;10.176;2023-04-24T05:00:49;9.60;99.90
7030;DHT22;3556;53.500;10.176;2023-04-24T05:03:14;9.70;99.90
7030;DHT22;3556;53.500;10.176;2023-04-24T05:05:40;9.70;99.90
7030;DHT22;3556;53.500;10.176;2023-04-24T05:08:09;9.80;99.90
7030;DHT22;3556;53.500;10.176;2023-04-24T05:10:34;9.80;99.90
7030;DHT22;3556;53.500;10.176;2023-04-24T05:13:02;9.90;99.90
7030;DHT22;3556;53.500;10.176;2023-04-24T05:15:28;9.90;99.90
7030;DHT22;3556;53.500;10.176;2023-04-24T05:17:54;10.00;99.90
7030;DHT22;3556;53.500;10.176;2023-04-24T05:20:20;10.10;99.90
7030;DHT22;3556;53.500;10.176;2023-04-24T05:22:45;10.20;99.90
7030;DHT22;3556;53.500;10.176;2023-04-24T05:25:11;10.30;99.90
7030;DHT22;3556;53.500;10.176;2023-04-24T05:27:38;10.40;99.90
7030;DHT22;3556;53.500;10.176;2023-04-24T05:30:04;10.50;99.90
7030;DHT22;3556;53.500;10.176;2023-04-24T05:32:30;10.60;99.90
7030;DHT22;3556;53.500;10.176;2023-04-24T05:34:55;10.70;99.90
7030;DHT22;3556;53.500;10.176;2023-04-24T05:37:21;10.80;99.90
7030;DHT22;3556;53.500;10.176;2023-04-24T05:39:47;10.90;99.90
7030;DHT22;3556;53.500;10.176;2023-04-24T05:42:12;11.00;99.90
7030;DHT22;3556;53.500;10.176;2023-04-24T05:44:38;11.20;99.90
7030;DHT22;3556;53.500;10.176;2023-04-24T05:47:03;11.30;99.90
7030;DHT22;3556;53.500;10.176;2023-04-24T05:49:29;11.40;99.90
7030;DHT22;3556;53.500;10.176;2023-04-24T05:51:55;11.50;99.90
7030;DHT22;3556;53.500;10.176;2023-04-24T05:54:20;11.60;99.90
7030;DHT22;3556;53.500;10.176;2023-04-24T05:56:46;11.70;99.90
7030;DHT22;3556;53.500;10.176;2023-04-24T05:59:12;11.90;99.90
7030;DHT22;3556;53.500;10.176;2023-04-24T06:01:37;12.00;99.90
7030;DHT22;3556;53.500;10.176;2023-04-24T06:04:04;12.10;99.90
7030;DHT22;3556;53.500;10.176;2023-04-24T06:06:29;12.20;99.90
7030;DHT22;3556;53.500;10.176;2023-04-24T06:08:55;12.30;99.90
7030;DHT22;3556;53.500;10.176;2023-04-24T06:11:22;12.40;99.90
7030;DHT22;3556;53.500;10.176;2023-04-24T06:13:48;12.50;99.90
7030;DHT22;3556;53.500;10.176;2023-04-24T06:16:14;12.70;99.90
7030;DHT22;3556;53.500;10.176;2023-04-24T06:18:39;12.70;99.90
7030;DHT22;3556;53.500;10.176;2023-04-24T06:21:05;12.80;99.90
7030;DHT22;3556;53.500;10.176;2023-04-24T06:23:31;12.80;99.90
7030;DHT22;3556;53.500;10.176;2023-04-24T06:25:58;12.80;99.90
7030;DHT22;3556;53.500;10.176;2023-04-24T06:28:24;12.90;99.90
7030;DHT22;3556;53.500;10.176;2023-04-24T06:30:50;12.90;99.90
7030;DHT22;3556;53.500;10.176;2023-04-24T06:33:16;12.90;99.90
7030;DHT22;3556;53.500;10.176;2023-04-24T06:35:42;13.00;99.90
7030;DHT22;3556;53.500;10.176;2023-04-24T06:38:08;13.10;99.90
7030;DHT22;3556;53.500;10.176;2023-04-24T06:40:33;13.20;99.90
7030;DHT22;3556;53.500;10.176;2023-04-24T06:42:59;13.30;99.90
7030;DHT22;3556;53.500;10.176;2023-04-24T06:45:25;13.40;99.90
7030;DHT22;3556;53.500;10.176;2023-04-24T06:47:51;13.50;99.90
7030;DHT22;3556;53.500;10.176;2023-04-24T06:50:17;13.60;99.90
7030;DHT22;3556;53.500;10.176;2023-04-24T06:52:42;13.60;99.90
7030;DHT22;3556;53.500;10.176;2023-04-24T06:55:09;13.70;99.90
7030;DHT22;3556;53.500;10.176;2023-04-24T06:57:36;13.80;99.90
7030;DHT22;3556;53.500;10.176;2023-04-24T07:00:03;13.90;99.90
7030;DHT22;3556;53.500;10.176;2023-04-24T07:02:30;13.90;99.90
7030;DHT22;3556;53.500;10.176;2023-04-24T07:04:56;14.00;99.90
7030;DHT22;3556;53.500;10.176;2023-04-24T07:07:22;14.00;99.90
7030;DHT22;3556;53.500;10.176;2023-04-24T07:09:49;14.00;99.90
7030;DHT22;3556;53.500;10.176;2023-04-24T07:12:16;14.00;99.90
7030;DHT22;3556;53.500;10.176;2023-04-24T07:14:42;13.90;99.90
7030;DHT22;3556;53.500;10.176;2023-04-24T07:17:08;14.00;99.90
7030;DHT22;3556;53.500;10.176;2023-04-24T07:19:34;14.10;99.90
7030;DHT22;3556;53.500;10.176;2023-04-24T07:22:03;14.30;99.90
7030;DHT22;3556;53.500;10.176;2023-04-24T07:24:29;14.40;99.90
7030;DHT22;3556;53.500;10.176;2023-04-24T07:26:55;14.30;99.90
7030;DHT22;3556;53.500;10.176;2023-04-24T07:29:21;14.30;99.90
7030;DHT22;3556;53.500;10.176;2023-04-24T07:31:46;14.20;99.90
7030;DHT22;3556;53.500;10.176;2023-04-24T07:34:12;14.20;99.90
7030;DHT22;3556;53.500;10.176;2023-04-24T07:36:38;14.40;99.90
7030;DHT22;3556;53.500;10.176;2023-04-24T07:39:04;14.40;99.90
7030;DHT22;3556;53.500;10.176;2023-04-24T07:41:31;14.20;99.90
7030;DHT22;3556;53.500;10.176;2023-04-24T07:43:57;14.10;99.90
7030;DHT22;3556;53.500;10.176;2023-04-24T07:46:23;13.90;99.90
7030;DHT22;3556;53.500;10.176;2023-04-24T07:48:50;13.90;99.90
7030;DHT22;3556;53.500;10.176;2023-04-24T07:51:15;13.90;99.90
7030;DHT22;3556;53.500;10.176;2023-04-24T07:53:42;13.90;99.90
7030;DHT22;3556;53.500;10.176;2023-04-24T07:56:08;13.90;99.90
7030;DHT22;3556;53.500;10.176;2023-04-24T07:58:34;13.90;99.90
7030;DHT22;3556;53.500;10.176;2023-04-24T08:01:00;13.90;99.90
7030;DHT22;3556;53.500;10.176;2023-04-24T08:03:26;14.00;99.90
7030;DHT22;3556;53.500;10.176;2023-04-24T08:05:51;14.10;99.90
7030;DHT22;3556;53.500;10.176;2023-04-24T08:08:19;14.20;99.90
7030;DHT22;3556;53.500;10.176;2023-04-24T08:10:45;14.20;99.90
7030;DHT22;3556;53.500;10.176;2023-04-24T08:13:10;14.20;99.90
7030;DHT22;3556;53.500;10.176;2023-04-24T08:15:37;14.10;99.90
7030;DHT22;3556;53.500;10.176;2023-04-24T08:18:02;13.90;99.90
7030;DHT22;3556;53.500;10.176;2023-04-24T08:20:28;13.80;99.90
7030;DHT22;3556;53.500;10.176;2023-04-24T08:22:54;13.80;99.90
7030;DHT22;3556;53.500;10.176;2023-04-24T08:25:20;13.90;99.90
7030;DHT22;3556;53.500;10.176;2023-04-24T08:27:48;13.90;99.90
7030;DHT22;3556;53.500;10.176;2023-04-24T08:30:14;13.90;99.90
7030;DHT22;3556;53.500;10.176;2023-04-24T08:32:40;14.00;99.90
7030;DHT22;3556;53.500;10.176;2023-04-24T08:35:06;14.00;99.90
7030;DHT22;3556;53.500;10.176;2023-04-24T08:37:34;14.00;99.90
7030;DHT22;3556;53.500;10.176;2023-04-24T08:40:00;14.00;99.90
7030;DHT22;3556;53.500;10.176;2023-04-24T08:42:28;14.00;99.90
7030;DHT22;3556;53.500;10.176;2023-04-24T08:44:54;14.00;99.90
7030;DHT22;3556;53.500;10.176;2023-04-24T08:47:20;14.10;99.90
7030;DHT22;3556;53.500;10.176;2023-04-24T08:49:48;14.10;99.90
7030;DHT22;3556;53.500;10.176;2023-04-24T08:52:15;14.30;99.90
7030;DHT22;3556;53.500;10.176;2023-04-24T08:54:41;14.40;99.90
7030;DHT22;3556;53.500;10.176;2023-04-24T08:57:09;14.50;99.90
7030;DHT22;3556;53.500;10.176;2023-04-24T08:59:38;14.50;99.90
7030;DHT22;3556;53.500;10.176;2023-04-24T09:02:04;14.40;99.90
7030;DHT22;3556;53.500;10.176;2023-04-24T09:04:30;14.40;99.90
7030;DHT22;3556;53.500;10.176;2023-04-24T09:06:58;14.30;99.90
7030;DHT22;3556;53.500;10.176;2023-04-24T09:09:24;14.30;99.90
7030;DHT22;3556;53.500;10.176;2023-04-24T09:11:51;14.20;99.90
7030;DHT22;3556;53.500;10.176;2023-04-24T09:14:19;14.10;99.90
7030;DHT22;3556;53.500;10.176;2023-04-24T09:16:46;14.00;99.90
7030;DHT22;3556;53.500;10.176;2023-04-24T09:19:12;13.80;99.90
7030;DHT22;3556;53.500;10.176;2023-04-24T09:21:38;13.70;99.90
7030;DHT22;3556;53.500;10.176;2023-04-24T09:24:05;13.70;99.90
7030;DHT22;3556;53.500;10.176;2023-04-24T09:26:35;13.60;99.90
7030;DHT22;3556;53.500;10.176;2023-04-24T09:29:01;13.60;99.90
7030;DHT22;3556;53.500;10.176;2023-04-24T09:31:28;13.60;99.90
7030;DHT22;3556;53.500;10.176;2023-04-24T09:33:55;13.60;99.90
7030;DHT22;3556;53.500;10.176;2023-04-24T09:36:45;13.60;99.90
7030;DHT22;3556;53.500;10.176;2023-04-24T09:39:13;13.70;99.90
7030;DHT22;3556;53.500;10.176;2023-04-24T09:41:45;13.70;99.90
7030;DHT22;3556;53.500;10.176;2023-04-24T09:44:16;13.70;99.90
7030;DHT22;3556;53.500;10.176;2023-04-24T09:46:44;13.70;99.90
7030;DHT22;3556;53.500;10.176;2023-04-24T09:49:13;13.70;99.90
7030;DHT22;3556;53.500;10.176;2023-04-24T09:51:40;13.70;99.90
7030;DHT22;3556;53.500;10.176;2023-04-24T09:54:19;13.50;99.90
7030;DHT22;3556;53.500;10.176;2023-04-24T09:56:47;13.50;99.90
7030;DHT22;3556;53.500;10.176;2023-04-24T09:59:14;13.50;99.90
7030;DHT22;3556;53.500;10.176;2023-04-24T10:01:40;13.50;99.90
7030;DHT22;3556;53.500;10.176;2023-04-24T10:04:21;13.50;99.90
7030;DHT22;3556;53.500;10.176;2023-04-24T10:06:49;13.60;99.90
7030;DHT22;3556;53.500;10.176;2023-04-24T10:09:15;13.80;99.90
7030;DHT22;3556;53.500;10.176;2023-04-24T10:11:43;14.00;99.90
7030;DHT22;3556;53.500;10.176;2023-04-24T10:14:22;14.30;99.90
7030;DHT22;3556;53.500;10.176;2023-04-24T10:16:49;14.50;99.90
7030;DHT22;3556;53.500;10.176;2023-04-24T10:19:15;14.60;99.90
7030;DHT22;3556;53.500;10.176;2023-04-24T10:21:43;14.70;99.90
7030;DHT22;3556;53.500;10.176;2023-04-24T10:24:16;14.80;99.90
7030;DHT22;3556;53.500;10.176;2023-04-24T10:26:42;14.80;99.90
7030;DHT22;3556;53.500;10.176;2023-04-24T10:29:10;14.70;99.90
7030;DHT22;3556;53.500;10.176;2023-04-24T10:31:38;14.70;99.90
7030;DHT22;3556;53.500;10.176;2023-04-24T10:34:08;14.60;99.90
7030;DHT22;3556;53.500;10.176;2023-04-24T10:36:36;14.60;99.90
7030;DHT22;3556;53.500;10.176;2023-04-24T10:39:05;14.50;99.90
7030;DHT22;3556;53.500;10.176;2023-04-24T10:41:32;14.50;99.90
7030;DHT22;3556;53.500;10.176;2023-04-24T10:44:15;14.40;99.90
7030;DHT22;3556;53.500;10.176;2023-04-24T10:46:53;14.30;99.90
7030;DHT22;3556;53.500;10.176;2023-04-24T10:49:28;14.20;99.90
7030;DHT22;3556;53.500;10.176;2023-04-24T10:52:00;14.10;99.90
7030;DHT22;3556;53.500;10.176;2023-04-24T10:56:53;14.10;99.90
7030;DHT22;3556;53.500;10.176;2023-04-24T10:59:27;14.30;99.90
7030;DHT22;3556;53.500;10.176;2023-04-24T11:01:54;14.40;99.90
7030;DHT22;3556;53.500;10.176;2023-04-24T11:04:33;14.50;99.90
7030;DHT22;3556;53.500;10.176;2023-04-24T11:07:00;14.60;99.90
7030;DHT22;3556;53.500;10.176;2023-04-24T11:09:30;14.50;99.90
7030;DHT22;3556;53.500;10.176;2023-04-24T11:12:07;14.50;99.90
7030;DHT22;3556;53.500;10.176;2023-04-24T11:20:06;14.80;99.90
7030;DHT22;3556;53.500;10.176;2023-04-24T11:22:34;14.80;99.90
7030;DHT22;3556;53.500;10.176;2023-04-24T11:25:02;14.90;99.90
7030;DHT22;3556;53.500;10.176;2023-04-24T11:27:30;15.00;99.90
7030;DHT22;3556;53.500;10.176;2023-04-24T11:37:43;15.20;99.90
7030;DHT22;3556;53.500;10.176;2023-04-24T11:40:12;15.40;99.90
7030;DHT22;3556;53.500;10.176;2023-04-24T11:42:45;15.30;99.90
7030;DHT22;3556;53.500;10.176;2023-04-24T11:45:22;15.20;99.90
7030;DHT22;3556;53.500;10.176;2023-04-24T11:47:48;15.10;99.90
7030;DHT22;3556;53.500;10.176;2023-04-24T11:50:15;15.00;99.90
7030;DHT22;3556;53.500;10.176;2023-04-24T11:52:44;14.80;99.90
7030;DHT22;3556;53.500;10.176;2023-04-24T11:57:58;14.70;99.90
7030;DHT22;3556;53.500;10.176;2023-04-24T12:00:27;14.70;99.90
7030;DHT22;3556;53.500;10.176;2023-04-24T12:03:10;14.90;99.90
7030;DHT22;3556;53.500;10.176;2023-04-24T12:05:37;15.30;99.90
7030;DHT22;3556;53.500;10.176;2023-04-24T12:08:03;15.90;99.90
7030;DHT22;3556;53.500;10.176;2023-04-24T12:10:30;16.70;99.90
7030;DHT22;3556;53.500;10.176;2023-04-24T12:12:57;17.20;98.00
7030;DHT22;3556;53.500;10.176;2023-04-24T12:15:23;17.40;97.60
7030;DHT22;3556;53.500;10.176;2023-04-24T12:17:54;17.20;96.30
7030;DHT22;3556;53.500;10.176;2023-04-24T12:20:28;16.90;95.80
7030;DHT22;3556;53.500;10.176;2023-04-24T12:22:56;16.50;95.70
7030;DHT22;3556;53.500;10.176;2023-04-24T12:25:25;16.30;96.30
7030;DHT22;3556;53.500;10.176;2023-04-24T12:28:11;16.10;97.30
7030;DHT22;3556;53.500;10.176;2023-04-24T12:30:42;15.80;96.90
7030;DHT22;3556;53.500;10.176;2023-04-24T12:33:10;15.50;97.10
7030;DHT22;3556;53.500;10.176;2023-04-24T12:35:36;15.30;97.10
7030;DHT22;3556;53.500;10.176;2023-04-24T12:38:08;15.20;97.30
7030;DHT22;3556;53.500;10.176;2023-04-24T12:40:34;15.10;97.90
7030;DHT22;3556;53.500;10.176;2023-04-24T12:43:00;14.90;98.20
7030;DHT22;3556;53.500;10.176;2023-04-24T12:45:26;14.70;99.30
7030;DHT22;3556;53.500;10.176;2023-04-24T12:47:53;14.60;99.30
7030;DHT22;3556;53.500;10.176;2023-04-24T12:50:19;14.50;99.60
7030;DHT22;3556;53.500;10.176;2023-04-24T12:52:45;14.40;99.90
7030;DHT22;3556;53.500;10.176;2023-04-24T12:55:11;14.30;99.90
7030;DHT22;3556;53.500;10.176;2023-04-24T12:57:38;14.30;99.90
7030;DHT22;3556;53.500;10.176;2023-04-24T13:00:06;14.10;99.90
7030;DHT22;3556;53.500;10.176;2023-04-24T13:02:32;13.90;99.90
7030;DHT22;3556;53.500;10.176;2023-04-24T13:04:59;13.70;99.90
7030;DHT22;3556;53.500;10.176;2023-04-24T13:07:26;13.50;99.90
7030;DHT22;3556;53.500;10.176;2023-04-24T13:09:53;13.40;99.90
7030;DHT22;3556;53.500;10.176;2023-04-24T13:12:19;13.30;99.90
7030;DHT22;3556;53.500;10.176;2023-04-24T13:14:45;13.20;99.90
7030;DHT22;3556;53.500;10.176;2023-04-24T13:17:11;13.30;99.90
7030;DHT22;3556;53.500;10.176;2023-04-24T13:19:40;13.30;99.90
7030;DHT22;3556;53.500;10.176;2023-04-24T13:22:06;13.20;99.90
7030;DHT22;3556;53.500;10.176;2023-04-24T13:24:33;13.30;99.90
7030;DHT22;3556;53.500;10.176;2023-04-24T13:26:59;13.20;99.90
7030;DHT22;3556;53.500;10.176;2023-04-24T13:29:25;13.10;99.90
7030;DHT22;3556;53.500;10.176;2023-04-24T13:31:51;13.00;99.90
7030;DHT22;3556;53.500;10.176;2023-04-24T13:34:19;12.90;99.90
7030;DHT22;3556;53.500;10.176;2023-04-24T13:36:45;12.80;99.90
7030;DHT22;3556;53.500;10.176;2023-04-24T13:39:11;12.70;99.90
7030;DHT22;3556;53.500;10.176;2023-04-24T13:41:37;12.60;99.90
7030;DHT22;3556;53.500;10.176;2023-04-24T13:44:03;12.50;99.90
7030;DHT22;3556;53.500;10.176;2023-04-24T13:46:29;12.50;99.90
7030;DHT22;3556;53.500;10.176;2023-04-24T13:48:56;12.50;99.90
7030;DHT22;3556;53.500;10.176;2023-04-24T13:51:22;12.50;99.90
7030;DHT22;3556;53.500;10.176;2023-04-24T13:53:48;12.40;99.90
7030;DHT22;3556;53.500;10.176;2023-04-24T13:56:13;12.40;99.90
7030;DHT22;3556;53.500;10.176;2023-04-24T13:58:40;12.40;99.90
7030;DHT22;3556;53.500;10.176;2023-04-24T14:01:05;12.30;99.90
7030;DHT22;3556;53.500;10.176;2023-04-24T14:03:32;12.30;99.90
7030;DHT22;3556;53.500;10.176;2023-04-24T14:05:58;12.30;99.90
7030;DHT22;3556;53.500;10.176;2023-04-24T14:08:24;12.30;99.90
7030;DHT22;3556;53.500;10.176;2023-04-24T14:10:50;12.20;99.90
7030;DHT22;3556;53.500;10.176;2023-04-24T14:13:16;12.20;99.90
7030;DHT22;3556;53.500;10.176;2023-04-24T14:15:42;12.20;99.90
7030;DHT22;3556;53.500;10.176;2023-04-24T14:18:07;12.20;99.90
7030;DHT22;3556;53.500;10.176;2023-04-24T14:20:33;12.30;99.90
7030;DHT22;3556;53.500;10.176;2023-04-24T14:22:59;12.20;99.90
7030;DHT22;3556;53.500;10.176;2023-04-24T14:25:25;12.20;99.90
7030;DHT22;3556;53.500;10.176;2023-04-24T14:27:51;12.30;99.90
7030;DHT22;3556;53.500;10.176;2023-04-24T14:30:17;12.40;99.90
7030;DHT22;3556;53.500;10.176;2023-04-24T14:32:42;12.40;99.90
7030;DHT22;3556;53.500;10.176;2023-04-24T14:35:08;12.50;99.90
7030;DHT22;3556;53.500;10.176;2023-04-24T14:37:34;12.50;99.90
7030;DHT22;3556;53.500;10.176;2023-04-24T14:39:59;12.50;99.90
7030;DHT22;3556;53.500;10.176;2023-04-24T14:42:25;12.60;99.90
7030;DHT22;3556;53.500;10.176;2023-04-24T14:44:51;12.70;99.90
7030;DHT22;3556;53.500;10.176;2023-04-24T14:47:16;12.80;99.90
7030;DHT22;3556;53.500;10.176;2023-04-24T14:49:49;12.80;99.90
7030;DHT22;3556;53.500;10.176;2023-04-24T14:52:15;12.80;99.90
7030;DHT22;3556;53.500;10.176;2023-04-24T14:54:42;12.80;99.90
7030;DHT22;3556;53.500;10.176;2023-04-24T14:57:07;12.70;99.90
7030;DHT22;3556;53.500;10.176;2023-04-24T14:59:33;12.60;99.90
7030;DHT22;3556;53.500;10.176;2023-04-24T15:01:59;12.50;99.90
7030;DHT22;3556;53.500;10.176;2023-04-24T15:04:25;12.40;99.90
7030;DHT22;3556;53.500;10.176;2023-04-24T15:06:51;12.30;99.90
7030;DHT22;3556;53.500;10.176;2023-04-24T15:09:18;12.10;99.90
7030;DHT22;3556;53.500;10.176;2023-04-24T15:11:43;11.90;99.90
7030;DHT22;3556;53.500;10.176;2023-04-24T15:14:09;11.70;99.90
7030;DHT22;3556;53.500;10.176;2023-04-24T15:16:35;11.50;99.90
7030;DHT22;3556;53.500;10.176;2023-04-24T15:19:00;11.30;99.90
7030;DHT22;3556;53.500;10.176;2023-04-24T15:21:26;11.20;99.90
7030;DHT22;3556;53.500;10.176;2023-04-24T15:23:52;11.00;99.90
7030;DHT22;3556;53.500;10.176;2023-04-24T15:26:18;10.90;99.90
7030;DHT22;3556;53.500;10.176;2023-04-24T15:28:44;10.80;99.90
7030;DHT22;3556;53.500;10.176;2023-04-24T15:31:12;10.70;99.90
7030;DHT22;3556;53.500;10.176;2023-04-24T15:33:37;10.70;99.90
7030;DHT22;3556;53.500;10.176;2023-04-24T15:36:03;10.60;99.90
7030;DHT22;3556;53.500;10.176;2023-04-24T15:38:29;10.50;99.90
7030;DHT22;3556;53.500;10.176;2023-04-24T15:40:54;10.40;99.90
7030;DHT22;3556;53.500;10.176;2023-04-24T15:43:20;10.20;99.90
7030;DHT22;3556;53.500;10.176;2023-04-24T15:45:46;10.10;99.90
7030;DHT22;3556;53.500;10.176;2023-04-24T15:48:11;10.10;99.90
7030;DHT22;3556;53.500;10.176;2023-04-24T15:50:37;10.00;99.90
7030;DHT22;3556;53.500;10.176;2023-04-24T15:53:03;10.10;99.90
7030;DHT22;3556;53.500;10.176;2023-04-24T15:55:28;10.10;99.90
7030;DHT22;3556;53.500;10.176;2023-04-24T15:57:54;10.00;99.90
7030;DHT22;3556;53.500;10.176;2023-04-24T16:00:20;10.00;99.90
7030;DHT22;3556;53.500;10.176;2023-04-24T16:02:46;9.90;99.90